Rochester, Vermont
Current Conditions -  °F | °C
As of 4:35 AM on Saturday 29 Nov 2014 (Local Time) from K6B0 Reporting Station
Clear Clear  
Wind Chill: 11°   Ceiling: Unl
Heat Index: 11°   Visibility: 10mi
Dew Point:   Wind: 0mph
Humidity: 88%   Direction: NA
Pressure: 30.23"   Gusts: NA
Location:  43.87°N, 72.81°W
Report Text: K6B0 290935Z AUTO 00000KT 10SM CLR M12/M13 A3023 RMK AO2 T11171133
Loading
Personal Weather Stations






























Interactive Weather Map New forecast layout! Learn more

10-Day Weather Forecast

Advertisements
Track Severe Weather on mobile